createdAt,value
2023-01-11T00:01:48.956Z,1.43
2023-01-11T00:04:15.564Z,1.17
2023-01-11T00:06:42.508Z,1.63
2023-01-11T00:09:08.969Z,1.30
2023-01-11T00:11:35.537Z,1.40
2023-01-11T00:14:02.386Z,1.50
2023-01-11T00:16:28.823Z,1.57
2023-01-11T00:18:55.648Z,1.40
2023-01-11T00:21:22.576Z,1.40
2023-01-11T00:23:50.049Z,1.50
2023-01-11T00:26:16.602Z,1.67
2023-01-11T00:28:43.059Z,1.47
2023-01-11T00:31:09.552Z,1.67
2023-01-11T00:33:36.278Z,1.23
2023-01-11T00:36:02.681Z,1.17
2023-01-11T00:38:44.638Z,1.00
2023-01-11T00:41:31.135Z,1.53
2023-01-11T00:44:16.777Z,1.27
2023-01-11T00:47:01.858Z,0.77
2023-01-11T00:49:28.541Z,1.20
2023-01-11T00:51:55.336Z,1.30
2023-01-11T00:54:21.765Z,1.80
2023-01-11T00:56:48.159Z,1.33
2023-01-11T00:59:14.574Z,1.63
2023-01-11T01:01:40.962Z,1.37
2023-01-11T01:04:07.463Z,1.20
2023-01-11T01:06:35.639Z,1.50
2023-01-11T01:09:02.119Z,1.30
2023-01-11T01:11:28.620Z,1.07
2023-01-11T01:14:31.842Z,1.80
2023-01-11T01:17:02.928Z,1.27
2023-01-11T01:19:30.189Z,1.30
2023-01-11T01:21:57.589Z,1.27
2023-01-11T01:24:24.869Z,1.50
2023-01-11T01:26:51.652Z,1.10
2023-01-11T01:29:18.533Z,0.90
2023-01-11T01:31:44.882Z,1.00
2023-01-11T01:34:12.326Z,1.30
2023-01-11T01:36:40.323Z,1.10
2023-01-11T01:39:08.882Z,0.77
2023-01-11T01:41:35.606Z,1.80
2023-01-11T01:44:03.661Z,1.13
2023-01-11T01:46:31.436Z,1.47
2023-01-11T01:49:04.012Z,1.47
2023-01-11T01:52:03.816Z,1.60
2023-01-11T01:54:34.574Z,1.43
2023-01-11T01:57:05.304Z,1.20
2023-01-11T01:59:32.594Z,1.80
2023-01-11T02:01:59.750Z,1.10
2023-01-11T02:04:37.717Z,1.27
2023-01-11T02:07:13.599Z,2.00
2023-01-11T02:09:43.679Z,2.10
2023-01-11T02:12:11.036Z,1.60
2023-01-11T02:14:38.346Z,1.37
2023-01-11T02:17:06.123Z,1.80
2023-01-11T02:19:44.676Z,1.13
2023-01-11T02:22:19.154Z,1.07
2023-01-11T02:25:01.557Z,1.80
2023-01-11T02:27:44.111Z,1.33
2023-01-11T02:30:22.304Z,1.83
2023-01-11T02:32:49.209Z,1.40
2023-01-11T02:35:36.575Z,1.67
2023-01-11T02:38:11.575Z,1.30
2023-01-11T02:40:47.805Z,1.20
2023-01-11T02:43:36.102Z,1.70
2023-01-11T02:46:14.563Z,1.57
2023-01-11T02:49:00.753Z,1.67
2023-01-11T02:51:32.411Z,2.40
2023-01-11T02:54:03.424Z,1.57
2023-01-11T02:56:34.007Z,1.70
2023-01-11T02:59:02.216Z,1.60
2023-01-11T03:01:28.773Z,1.70
2023-01-11T03:03:56.349Z,1.30
2023-01-11T03:06:26.435Z,1.10
2023-01-11T03:08:56.080Z,1.30
2023-01-11T03:11:53.292Z,1.63
2023-01-11T03:14:39.036Z,1.05
2023-01-11T03:17:24.903Z,1.77
2023-01-11T03:19:52.790Z,1.30
2023-01-11T03:22:25.849Z,2.47
2023-01-11T03:24:55.527Z,1.50
2023-01-11T03:27:29.607Z,1.60
2023-01-11T03:30:05.967Z,2.00
2023-01-11T03:32:32.412Z,2.42
2023-01-11T03:35:19.548Z,2.10
2023-01-11T03:37:50.297Z,1.40
2023-01-11T03:40:20.110Z,1.80
2023-01-11T03:43:06.205Z,1.50
2023-01-11T03:45:34.584Z,1.17
2023-01-11T03:48:03.029Z,1.70
2023-01-11T03:50:30.781Z,1.57
2023-01-11T03:52:58.560Z,1.87
2023-01-11T03:55:30.674Z,1.70
2023-01-11T03:57:58.223Z,1.73
2023-01-11T04:00:24.631Z,1.30
2023-01-11T04:02:53.814Z,1.83
2023-01-11T04:05:20.675Z,1.53
2023-01-11T04:07:47.415Z,1.30
2023-01-11T04:10:14.044Z,1.63
2023-01-11T04:12:40.590Z,1.10
2023-01-11T04:15:07.283Z,1.47
2023-01-11T04:17:33.769Z,2.00
2023-01-11T04:20:00.592Z,2.20
2023-01-11T04:22:27.010Z,1.97
2023-01-11T04:24:53.455Z,1.83
2023-01-11T04:27:19.748Z,1.00
2023-01-11T04:29:46.406Z,1.47
2023-01-11T04:32:13.321Z,1.50
2023-01-11T04:34:39.679Z,1.43
2023-01-11T04:37:06.191Z,1.87
2023-01-11T04:39:33.067Z,1.80
2023-01-11T04:42:18.341Z,1.50
2023-01-11T04:44:49.064Z,1.50
2023-01-11T04:47:16.252Z,1.90
2023-01-11T04:49:43.075Z,1.60
2023-01-11T04:52:12.028Z,2.00
2023-01-11T04:54:38.792Z,1.63
2023-01-11T04:57:06.211Z,1.60
2023-01-11T04:59:32.868Z,2.03
2023-01-11T05:01:59.414Z,1.73
2023-01-11T05:04:25.779Z,1.87
2023-01-11T05:06:52.581Z,1.57
2023-01-11T05:09:19.205Z,2.10
2023-01-11T05:11:45.766Z,1.70
2023-01-11T05:14:12.695Z,2.10
2023-01-11T05:16:39.269Z,1.80
2023-01-11T05:19:06.285Z,2.50
2023-01-11T05:21:36.434Z,2.23
2023-01-11T05:24:04.445Z,2.13
2023-01-11T05:26:34.623Z,2.00
2023-01-11T05:29:02.391Z,2.27
2023-01-11T05:31:29.202Z,2.10
2023-01-11T05:34:00.474Z,2.97
2023-01-11T05:36:28.228Z,1.77
2023-01-11T05:38:56.342Z,2.10
2023-01-11T05:41:23.617Z,2.30
2023-01-11T05:44:09.388Z,1.93
2023-01-11T05:46:36.565Z,1.93
2023-01-11T05:49:04.420Z,2.17
2023-01-11T05:51:32.487Z,2.30
2023-01-11T05:53:59.707Z,1.93
2023-01-11T05:56:26.361Z,2.07
2023-01-11T05:58:52.711Z,2.10
2023-01-11T06:01:21.155Z,1.80
2023-01-11T06:03:47.598Z,2.03
2023-01-11T06:06:14.776Z,2.07
2023-01-11T06:08:41.211Z,2.50
2023-01-11T06:11:07.676Z,2.57
2023-01-11T06:13:34.220Z,1.87
2023-01-11T06:16:11.364Z,2.00
2023-01-11T06:18:42.987Z,2.10
2023-01-11T06:21:10.358Z,2.50
2023-01-11T06:23:37.617Z,2.13
2023-01-11T06:26:05.271Z,2.50
2023-01-11T06:28:32.935Z,2.53
2023-01-11T06:30:59.830Z,3.00
2023-01-11T06:33:27.035Z,1.80
2023-01-11T06:35:54.079Z,2.60
2023-01-11T06:38:22.663Z,2.67
2023-01-11T06:40:57.168Z,2.73
2023-01-11T06:43:24.031Z,2.20
2023-01-11T06:45:52.077Z,2.20
2023-01-11T06:48:19.819Z,1.97
2023-01-11T06:50:53.531Z,2.13
2023-01-11T06:53:20.160Z,2.30
2023-01-11T06:55:49.443Z,2.10
2023-01-11T06:58:15.997Z,1.83
2023-01-11T07:00:42.481Z,2.17
2023-01-11T07:03:11.031Z,2.60
2023-01-11T07:05:37.654Z,2.60
2023-01-11T07:08:04.422Z,2.77
2023-01-11T07:10:33.023Z,2.27
2023-01-11T07:12:59.573Z,2.47
2023-01-11T07:15:26.351Z,2.30
2023-01-11T07:17:56.498Z,3.07
2023-01-11T07:20:24.822Z,3.17
2023-01-11T07:22:51.701Z,2.53
2023-01-11T07:25:18.549Z,2.97
2023-01-11T07:27:46.042Z,3.17
2023-01-11T07:30:12.586Z,3.03
2023-01-11T07:32:39.657Z,2.80
2023-01-11T07:35:06.359Z,2.83
2023-01-11T07:37:34.034Z,2.80
2023-01-11T07:40:01.137Z,2.40
2023-01-11T07:42:46.233Z,2.87
2023-01-11T07:45:13.218Z,2.00
2023-01-11T07:47:39.638Z,2.27
2023-01-11T07:50:07.342Z,2.60
2023-01-11T07:52:33.783Z,2.67
2023-01-11T07:55:02.615Z,3.20
2023-01-11T07:57:30.102Z,2.73
2023-01-11T07:59:56.655Z,3.37
2023-01-11T08:02:23.138Z,3.23
2023-01-11T08:04:49.579Z,3.53
2023-01-11T08:07:15.963Z,3.03
2023-01-11T08:09:42.321Z,3.23
2023-01-11T08:12:27.639Z,2.77
2023-01-11T08:14:53.986Z,3.30
2023-01-11T08:17:21.384Z,2.50
2023-01-11T08:19:47.864Z,2.60
2023-01-11T08:22:14.411Z,3.00
2023-01-11T08:24:40.780Z,3.30
2023-01-11T08:27:07.455Z,2.50
2023-01-11T08:29:34.039Z,2.60
2023-01-11T08:32:00.676Z,2.80
2023-01-11T08:34:29.021Z,3.03
2023-01-11T08:37:00.912Z,3.63
2023-01-11T08:39:30.712Z,3.20
2023-01-11T08:41:58.238Z,4.07
2023-01-11T08:44:33.759Z,4.00
2023-01-11T08:47:01.290Z,3.58
2023-01-11T08:49:27.745Z,3.47
2023-01-11T08:51:54.108Z,3.83
2023-01-11T08:54:20.454Z,3.60
2023-01-11T08:56:46.834Z,3.63
2023-01-11T08:59:13.318Z,3.17
2023-01-11T09:01:40.003Z,4.23
2023-01-11T09:04:23.207Z,4.07
2023-01-11T09:06:51.332Z,4.77
2023-01-11T09:09:18.901Z,4.30
2023-01-11T09:11:54.836Z,4.50
2023-01-11T09:14:21.703Z,3.92
2023-01-11T09:16:48.971Z,3.00
2023-01-11T09:19:15.433Z,3.83
2023-01-11T09:21:42.140Z,3.40
2023-01-11T09:24:08.603Z,3.37
2023-01-11T09:26:35.810Z,3.60
2023-01-11T09:29:02.272Z,3.63
2023-01-11T09:31:28.845Z,5.33
2023-01-11T09:33:56.548Z,5.07
2023-01-11T09:36:25.203Z,4.57
2023-01-11T09:38:52.937Z,4.23
2023-01-11T09:41:31.398Z,4.43
2023-01-11T09:44:06.345Z,4.43
2023-01-11T09:46:36.331Z,3.50
2023-01-11T09:49:03.618Z,3.03
2023-01-11T09:51:34.104Z,2.80
2023-01-11T09:54:02.202Z,3.13
2023-01-11T09:56:32.180Z,3.33
2023-01-11T09:59:17.079Z,2.80
2023-01-11T10:01:53.628Z,2.70
2023-01-11T10:07:12.380Z,2.50
2023-01-11T10:18:30.452Z,2.00
2023-01-11T10:18:49.373Z,1.93
2023-01-11T10:21:23.696Z,2.20
2023-01-11T10:23:51.883Z,2.20
2023-01-11T10:26:27.453Z,2.33
2023-01-11T10:29:30.140Z,2.10
2023-01-11T10:32:12.920Z,2.00
2023-01-11T10:35:14.585Z,1.47
2023-01-11T10:38:01.851Z,1.80
2023-01-11T10:40:48.665Z,2.10
2023-01-11T10:43:24.580Z,1.65
2023-01-11T10:48:41.924Z,1.80
2023-01-11T10:51:31.864Z,1.90
2023-01-11T10:57:02.783Z,2.43
2023-01-11T10:59:34.774Z,1.50
2023-01-11T11:02:12.979Z,1.83
2023-01-11T11:04:45.668Z,2.03
2023-01-11T11:07:22.816Z,1.53
2023-01-11T11:10:11.376Z,1.67
2023-01-11T11:12:41.638Z,1.40
2023-01-11T11:15:20.234Z,1.73
2023-01-11T11:17:50.575Z,1.57
2023-01-11T11:20:20.833Z,1.50
2023-01-11T11:22:54.065Z,1.37
2023-01-11T11:25:27.352Z,1.30
2023-01-11T11:28:01.014Z,1.67
2023-01-11T11:30:32.141Z,1.37
2023-01-11T11:33:03.741Z,1.20
2023-01-11T11:35:35.501Z,1.40
2023-01-11T11:38:02.518Z,1.70
2023-01-11T11:40:38.397Z,1.67
2023-01-11T11:43:17.209Z,1.50
2023-01-11T11:45:50.729Z,1.63
2023-01-11T11:48:17.384Z,1.53
2023-01-11T11:50:45.646Z,1.77
2023-01-11T11:53:18.107Z,2.50
2023-01-11T11:55:44.555Z,2.20
2023-01-11T11:58:14.882Z,1.90
2023-01-11T12:00:45.286Z,1.57
2023-01-11T12:03:15.443Z,1.67
2023-01-11T12:05:55.724Z,1.70
2023-01-11T12:08:24.604Z,1.67
2023-01-11T12:10:53.869Z,1.80
2023-01-11T12:13:28.256Z,1.73
2023-01-11T12:15:56.480Z,1.03
2023-01-11T12:18:27.904Z,1.10
2023-01-11T12:20:55.114Z,1.10
2023-01-11T12:23:26.153Z,1.40
2023-01-11T12:25:56.471Z,0.83
2023-01-11T12:28:33.817Z,1.40
2023-01-11T12:31:11.987Z,1.30
2023-01-11T12:33:42.857Z,1.17
2023-01-11T12:36:17.831Z,1.40
2023-01-11T12:39:05.154Z,1.90
2023-01-11T12:41:44.098Z,1.40
2023-01-11T12:44:28.925Z,0.80
2023-01-11T12:47:04.221Z,1.47
2023-01-11T12:49:36.832Z,1.23
2023-01-11T12:52:19.534Z,1.60
2023-01-11T12:54:51.694Z,1.10
2023-01-11T12:57:26.070Z,1.43
2023-01-11T13:00:12.796Z,1.20
2023-01-11T13:05:12.188Z,0.73
2023-01-11T13:07:57.649Z,1.30
2023-01-11T13:10:36.694Z,1.40
2023-01-11T13:13:09.478Z,1.15
2023-01-11T13:15:46.157Z,1.30
2023-01-11T13:18:42.041Z,1.00
2023-01-11T13:21:18.550Z,1.30
2023-01-11T13:26:16.682Z,1.08
2023-01-11T13:28:44.895Z,1.40
2023-01-11T13:31:13.486Z,1.47
2023-01-11T13:33:42.781Z,1.80
2023-01-11T13:36:23.460Z,1.13
2023-01-11T13:38:53.555Z,1.40
2023-01-11T13:41:21.462Z,1.20
2023-01-11T13:43:48.041Z,1.23
2023-01-11T13:46:18.228Z,1.20
2023-01-11T13:48:50.838Z,1.10
2023-01-11T13:51:40.673Z,1.60
2023-01-11T13:54:36.486Z,1.00
2023-01-11T13:57:25.509Z,1.00
2023-01-11T13:59:56.287Z,1.27
2023-01-11T14:02:41.436Z,0.97
2023-01-11T14:05:21.611Z,0.97
2023-01-11T14:08:15.126Z,1.17
2023-01-11T14:10:53.582Z,0.70
2023-01-11T14:13:56.984Z,0.90
2023-01-11T14:16:39.144Z,0.93
2023-01-11T14:19:28.406Z,0.70
2023-01-11T14:22:02.289Z,0.87
2023-01-11T14:24:30.896Z,0.70
2023-01-11T14:27:08.008Z,0.93
2023-01-11T14:29:38.693Z,0.83
2023-01-11T14:32:08.457Z,1.00
2023-01-11T14:34:37.799Z,0.80
2023-01-11T14:37:14.983Z,0.93
2023-01-11T14:40:16.005Z,1.00
2023-01-11T14:43:02.769Z,0.80
2023-01-11T14:45:44.607Z,0.90
2023-01-11T14:48:22.576Z,0.93
2023-01-11T14:51:08.069Z,0.90
2023-01-11T14:53:39.657Z,1.10
2023-01-11T14:56:27.082Z,1.17
2023-01-11T14:59:04.937Z,1.10
2023-01-11T15:01:51.350Z,0.97
2023-01-11T15:04:24.630Z,0.93
2023-01-11T15:06:55.803Z,0.80
2023-01-11T15:09:41.965Z,1.10
2023-01-11T15:12:20.203Z,1.00
2023-01-11T15:14:53.275Z,0.80
2023-01-11T15:17:39.055Z,0.97
2023-01-11T15:20:06.905Z,0.90
2023-01-11T15:22:41.117Z,1.60
2023-01-11T15:25:25.182Z,1.33
2023-01-11T15:27:52.233Z,1.53
2023-01-11T15:30:31.948Z,1.00
2023-01-11T15:33:17.014Z,0.90
2023-01-11T15:35:55.489Z,1.63
2023-01-11T15:38:31.624Z,1.37
2023-01-11T15:41:18.753Z,1.55
2023-01-11T15:46:30.307Z,0.90
2023-01-11T15:49:15.695Z,1.30
2023-01-11T15:51:54.595Z,1.00
2023-01-11T15:54:40.085Z,1.10
2023-01-11T15:57:18.729Z,0.80
2023-01-11T15:59:50.601Z,1.00
2023-01-11T16:02:33.316Z,1.07
2023-01-11T16:05:06.212Z,0.90
2023-01-11T16:07:43.920Z,1.40
2023-01-11T16:10:29.272Z,1.23
2023-01-11T16:13:01.722Z,0.80
2023-01-11T16:15:33.386Z,1.13
2023-01-11T16:18:05.008Z,0.93
2023-01-11T16:20:32.017Z,1.10
2023-01-11T16:23:02.586Z,1.17
2023-01-11T16:25:30.550Z,0.80
2023-01-11T16:27:58.553Z,1.20
2023-01-11T16:30:25.885Z,1.43
2023-01-11T16:32:52.308Z,1.77
2023-01-11T16:35:23.621Z,1.70
2023-01-11T16:37:54.301Z,1.30
2023-01-11T16:40:31.435Z,1.33
2023-01-11T16:43:15.572Z,1.87
2023-01-11T16:45:44.259Z,1.70
2023-01-11T16:48:13.721Z,1.23
2023-01-11T16:50:41.427Z,1.33
2023-01-11T16:53:16.088Z,1.03
2023-01-11T16:55:44.761Z,1.40
2023-01-11T16:58:40.587Z,1.50
2023-01-11T17:01:08.775Z,1.33
2023-01-11T17:04:07.221Z,1.23
2023-01-11T17:06:39.329Z,1.40
2023-01-11T17:09:10.924Z,1.97
2023-01-11T17:11:47.859Z,1.17
2023-01-11T17:14:33.126Z,1.87
2023-01-11T17:17:13.131Z,1.87
2023-01-11T17:19:49.589Z,1.20
2023-01-11T17:22:16.035Z,0.98
2023-01-11T17:24:45.202Z,1.60
2023-01-11T17:27:25.178Z,1.43
2023-01-11T17:29:57.001Z,1.70
2023-01-11T17:32:27.048Z,1.07
2023-01-11T17:34:54.177Z,1.20
2023-01-11T17:37:29.617Z,1.17
2023-01-11T17:39:57.894Z,1.10
2023-01-11T17:42:47.524Z,1.40
2023-01-11T17:45:24.316Z,1.50
2023-01-11T17:47:54.242Z,1.17
2023-01-11T17:50:25.379Z,1.20
2023-01-11T17:53:01.079Z,1.93
2023-01-11T17:55:28.869Z,1.48
2023-01-11T17:58:14.169Z,1.13
2023-01-11T18:00:44.786Z,1.23
2023-01-11T18:03:21.525Z,1.17
2023-01-11T18:05:50.274Z,1.75
2023-01-11T18:08:17.995Z,1.70
2023-01-11T18:10:50.225Z,1.57
2023-01-11T18:13:26.409Z,1.50
2023-01-11T18:15:53.191Z,1.50
2023-01-11T18:18:38.613Z,1.47
2023-01-11T18:21:25.070Z,1.30
2023-01-11T18:24:10.428Z,1.42
2023-01-11T18:26:42.333Z,1.40
2023-01-11T18:29:19.417Z,1.50
2023-01-11T18:31:46.239Z,1.30
2023-01-11T18:34:12.770Z,2.03
2023-01-11T18:36:39.648Z,1.10
2023-01-11T18:39:10.280Z,1.33
2023-01-11T18:41:56.727Z,1.90
2023-01-11T18:44:23.347Z,2.08
2023-01-11T18:46:49.865Z,2.53
2023-01-11T18:49:16.500Z,1.00
2023-01-11T18:51:45.264Z,1.70
2023-01-11T18:54:15.636Z,1.63
2023-01-11T18:56:42.165Z,1.67
2023-01-11T18:59:08.898Z,1.30
2023-01-11T19:01:52.780Z,1.30
2023-01-11T19:04:22.073Z,1.48
2023-01-11T19:06:48.626Z,1.70
2023-01-11T19:09:15.498Z,1.33
2023-01-11T19:11:41.887Z,0.87
2023-01-11T19:14:09.590Z,1.20
2023-01-11T19:16:36.052Z,1.30
2023-01-11T19:19:04.706Z,1.37
2023-01-11T19:21:31.493Z,1.00
2023-01-11T19:23:58.176Z,1.47
2023-01-11T19:26:25.407Z,1.40
2023-01-11T19:28:51.897Z,1.20
2023-01-11T19:31:18.323Z,1.50
2023-01-11T19:33:47.799Z,1.63
2023-01-11T19:36:14.417Z,1.30
2023-01-11T19:38:41.055Z,1.20
2023-01-11T19:41:10.468Z,1.67
2023-01-11T19:43:37.151Z,1.97
2023-01-11T19:46:06.027Z,1.20
2023-01-11T19:53:57.747Z,0.87
2023-01-11T19:56:27.401Z,1.77
2023-01-11T19:58:54.299Z,1.50
2023-01-11T20:01:22.739Z,1.40
2023-01-11T20:03:49.346Z,1.23
2023-01-11T20:06:18.896Z,2.17
2023-01-11T20:08:47.689Z,1.80
2023-01-11T20:11:15.229Z,2.27
2023-01-11T20:13:45.536Z,1.80
2023-01-11T20:16:14.157Z,2.60
2023-01-11T20:18:42.975Z,1.70
2023-01-11T20:27:03.486Z,1.50
2023-01-11T20:29:33.864Z,3.57
2023-01-11T20:37:34.163Z,1.97
2023-01-11T20:40:09.074Z,1.30
2023-01-11T20:42:38.856Z,1.80
2023-01-11T20:45:14.657Z,2.10
2023-01-11T20:47:42.384Z,1.53
2023-01-11T20:50:09.209Z,1.70
2023-01-11T20:52:35.782Z,1.83
2023-01-11T20:55:20.949Z,1.80
2023-01-11T21:03:38.921Z,1.80
2023-01-11T21:08:56.807Z,1.13
2023-01-11T21:11:54.267Z,1.30
2023-01-11T21:14:27.257Z,1.43
2023-01-11T21:17:01.475Z,1.70
2023-01-11T21:22:01.890Z,1.07
2023-01-11T21:24:28.488Z,1.50
2023-01-11T21:26:54.924Z,1.23
2023-01-11T21:29:21.710Z,1.60
2023-01-11T21:31:48.538Z,1.63
2023-01-11T21:34:15.097Z,1.50
2023-01-11T21:36:42.718Z,1.07
2023-01-11T21:39:12.711Z,1.67
2023-01-11T21:41:57.992Z,2.17
2023-01-11T21:44:32.353Z,2.03
2023-01-11T21:47:02.735Z,1.30
2023-01-11T21:49:29.456Z,2.13
2023-01-11T21:51:55.984Z,2.10
2023-01-11T21:54:23.004Z,1.43
2023-01-11T21:56:49.880Z,2.30
2023-01-11T21:59:17.294Z,1.23
2023-01-11T22:01:44.863Z,1.47
2023-01-11T22:04:15.818Z,1.90
2023-01-11T22:06:50.418Z,0.90
2023-01-11T22:09:17.615Z,2.33
2023-01-11T22:11:47.579Z,2.07
2023-01-11T22:14:15.722Z,2.00
2023-01-11T22:16:43.363Z,2.17
2023-01-11T22:19:19.359Z,1.57
2023-01-11T22:21:46.201Z,1.53
2023-01-11T22:24:20.415Z,1.60
2023-01-11T22:26:48.280Z,1.40
2023-01-11T22:29:16.441Z,1.33
2023-01-11T22:31:45.758Z,2.17
2023-01-11T22:34:14.155Z,1.73
2023-01-11T22:36:40.780Z,1.23
2023-01-11T22:39:07.349Z,1.93
2023-01-11T22:41:34.242Z,1.93
2023-01-11T22:44:01.946Z,1.90
2023-01-11T22:46:28.785Z,1.40
2023-01-11T22:48:56.375Z,2.03
2023-01-11T22:51:25.886Z,1.63
2023-01-11T22:53:53.167Z,1.40
2023-01-11T22:56:22.289Z,1.47
2023-01-11T22:58:50.628Z,2.83
2023-01-11T23:01:19.023Z,1.73
2023-01-11T23:03:45.615Z,1.60
2023-01-11T23:06:16.352Z,1.27
2023-01-11T23:08:42.975Z,1.60
2023-01-11T23:11:16.007Z,1.57
2023-01-11T23:13:59.084Z,2.17
2023-01-11T23:16:25.554Z,1.37
2023-01-11T23:18:51.947Z,1.80
2023-01-11T23:21:21.136Z,2.03
2023-01-11T23:23:49.118Z,1.37
2023-01-11T23:26:18.765Z,1.30
2023-01-11T23:28:45.712Z,1.87
2023-01-11T23:31:20.445Z,1.20
2023-01-11T23:33:51.229Z,1.50
2023-01-11T23:36:18.706Z,1.20
2023-01-11T23:38:45.854Z,1.13
2023-01-11T23:41:34.881Z,2.53
2023-01-11T23:44:04.720Z,1.60
2023-01-11T23:46:50.320Z,2.00
2023-01-11T23:49:16.964Z,1.10
2023-01-11T23:51:44.452Z,2.47
2023-01-11T23:54:12.494Z,1.10
2023-01-11T23:56:39.112Z,1.97
2023-01-11T23:59:06.503Z,1.90
